Arbor Vitae, Wisconsin
Current Conditions -  °F | °C
As of 10:35 AM on Thursday 30 Oct 2014 (Local Time) from KARV Reporting Station
Overcast Overcast  
Wind Chill: 32°   Ceiling: 1400
Heat Index: 38°   Visibility: 10mi
Dew Point: 33°   Wind: 8mph
Humidity: 82%   Direction: 320°NW
Pressure: 30.04"   Gusts: NA
Location:  45.9553°N, 89.6779°W
Report Text: KARV 301535Z AUTO 32007KT 10SM OVC014 03/00 A3004 RMK AO2 T00320004
Loading
Personal Weather Stations






























Interactive Weather Map
Tropical Storm Tracking
New forecast layout! Learn more

10-Day Weather Forecast

Advertisements
Track Severe Weather on mobile